Thunder radar more information blitzortung!


Löydät sääaseman tiedot myös:

European Weather Network

Finland Weather Exchange

Weather Underground

AWEKAS



Weather Underground säähistoriasivu

Päivittäin yhteenveto Elokuu 8, 2017 Yksiköt:  Englantilaiset    Metriset   Molemmat
« Edellinen Päivä
Seuraava Päivä »
Päivittäin Viikoittain Kuukausittain Vuosittain Mukautettu
  Korkea: Matala: Keskiarvo:
Lämpötila: TemperatureC °F 5.3 °F 13.1 °F
Kastepiste: DewpointC °F 4.7 °F 10.9 °F
Kosteus: Humidity % 71 % 86 %
Tuulen nopeus: WindSpeedKMH mph 0.0 mph 2.9 mph
Tuulenpuuska: WindSpeedGustKMH mph - -
Tuuli:- - SSW
Ilmanpaine: PressurehPa in 1014.8 in -
Sade: 0.3 in    
Historical Graphs
 
 
Taulukkotiedot Elokuu 8, 2017
Aika Lämpötila Kastepiste Ilmanpaine Tuuli Tuulen nopeus Tuulenpuuska Kosteus Sademäärä (tunneittain)
TemperatureC °F DewpointC °F PressurehPa in Calm     Humidity % HourlyPrecipMM in
00:00 8.9 °F 8.0 °F 1014.8 in Calm     94 % 0.0 in
00:15 8.7 °F 8.0 °F 1015.1 in Calm     95 % 0.0 in
00:30 8.4 °F 7.5 °F 1015.1 in Calm     94 % 0.0 in
01:00 7.8 °F 7.0 °F 1015.5 in Calm     95 % 0.0 in
01:15 7.6 °F 6.8 °F 1015.5 in Calm     95 % 0.0 in
01:30 7.3 °F 6.6 °F 1015.5 in Calm     95 % 0.0 in
01:45 7.2 °F 6.4 °F 1015.5 in Calm     95 % 0.0 in
02:00 7.1 °F 6.3 °F 1015.5 in Calm     95 % 0.0 in
02:15 6.8 °F 6.0 °F 1015.8 in Calm     95 % 0.0 in
02:30 6.6 °F 5.9 °F 1015.8 in Calm     95 % 0.0 in
02:45 6.5 °F 5.9 °F 1015.8 in Calm     96 % 0.0 in
03:00 6.5 °F 5.9 °F 1015.8 in Calm     96 % 0.0 in
03:15 6.5 °F 5.9 °F 1015.8 in Calm     96 % 0.0 in
03:30 6.3 °F 5.7 °F 1015.8 in Calm     96 % 0.0 in
03:45 6.1 °F 5.5 °F 1015.8 in Calm     96 % 0.0 in
04:00 5.9 °F 5.3 °F 1015.8 in Calm     96 % 0.0 in
04:15 5.7 °F 5.1 °F 1015.8 in Calm     96 % 0.0 in
04:30 5.7 °F 5.1 °F 1015.8 in Calm     96 % 0.0 in
04:45 5.6 °F 5.0 °F 1015.8 in Calm     96 % 0.0 in
05:00 5.5 °F 4.9 °F 1015.8 in Calm     96 % 0.0 in
05:15 5.4 °F 4.9 °F 1015.8 in Calm     96 % 0.0 in
05:30 5.4 °F 4.8 °F 1015.8 in Calm     96 % 0.0 in
05:45 5.3 °F 4.7 °F 1015.8 in Calm     96 % 0.0 in
06:00 5.4 °F 5.0 °F 1015.8 in Calm     97 % 0.0 in
06:30 5.9 °F 5.5 °F 1015.8 in Calm     97 % 0.0 in
06:45 6.8 °F 6.5 °F 1015.8 in Calm     98 % 0.0 in
07:00 7.8 °F 7.5 °F 1015.8 in Calm     98 % 0.0 in
07:15 8.9 °F 8.6 °F 1015.8 in Calm     98 % 0.0 in
07:30 9.4 °F 9.1 °F 1015.8 in Calm     98 % 0.0 in
07:45 9.8 °F 9.5 °F 1016.1 in Calm     98 % 0.0 in
08:00 10.4 °F 10.1 °F 1015.8 in Calm     98 % 0.0 in
08:15 10.7 °F 10.4 °F 1015.8 in Calm     98 % 0.0 in
08:30 11.2 °F 10.9 °F 1015.8 in Calm   6.4 mph 98 % 0.0 in
09:00 12.0 °F 11.7 °F 1016.1 in South 1.6 mph 8.0 mph 98 % 0.0 in
09:15 12.6 °F 12.1 °F 1016.1 in SSE 1.6 mph 9.7 mph 97 % 0.0 in
09:30 12.9 °F 12.3 °F 1016.1 in SSW 1.6 mph 9.7 mph 96 % 0.0 in
09:45 13.3 °F 12.4 °F 1016.1 in South 1.6 mph 8.0 mph 94 % 0.0 in
10:00 13.8 °F 12.7 °F 1016.1 in SSW 1.6 mph 6.4 mph 93 % 0.0 in
10:15 14.3 °F 13.1 °F 1016.5 in SSW 4.8 mph 14.5 mph 92 % 0.0 in
10:30 15.1 °F 13.6 °F 1016.5 in SSW 1.6 mph 8.0 mph 91 % 0.0 in
10:45 15.8 °F 13.6 °F 1016.5 in SSW 6.4 mph 14.5 mph 87 % 0.0 in
11:00 16.3 °F 13.9 °F 1016.5 in SSW 4.8 mph 12.9 mph 86 % 0.0 in
11:15 16.3 °F 13.8 °F 1016.8 in SSW 6.4 mph 12.9 mph 85 % 0.0 in
11:30 15.7 °F 13.7 °F 1016.8 in SSW 4.8 mph 14.5 mph 88 % 0.3 in
11:45 15.6 °F 14.3 °F 1016.8 in South 1.6 mph 6.4 mph 92 % 0.3 in
12:00 15.9 °F 14.3 °F 1017.2 in SSW 3.2 mph 11.3 mph 90 % 0.3 in
12:15 16.1 °F 14.1 °F 1017.2 in SSW 3.2 mph 9.7 mph 88 % 0.3 in
12:30 16.4 °F 14.3 °F 1017.2 in SSW 6.4 mph 14.5 mph 87 % 0.0 in
12:45 16.6 °F 14.1 °F 1017.5 in SSW 6.4 mph 16.1 mph 85 % 0.0 in
13:00 17.0 °F 13.9 °F 1017.5 in SSW 4.8 mph 19.3 mph 82 % 0.0 in
13:15 17.1 °F 13.8 °F 1017.5 in SSW 4.8 mph 16.1 mph 81 % 0.0 in
13:30 17.2 °F 13.9 °F 1017.5 in SSE 6.4 mph 19.3 mph 81 % 0.0 in
13:45 17.3 °F 14.0 °F 1017.5 in South 4.8 mph 14.5 mph 81 % 0.0 in
14:00 17.1 °F 13.8 °F 1017.5 in SSW 4.8 mph 14.5 mph 81 % 0.0 in
14:15 17.5 °F 14.0 °F 1017.5 in SSW 4.8 mph 14.5 mph 80 % 0.0 in
14:30 18.1 °F 14.0 °F 1017.5 in SSW 6.4 mph 17.7 mph 77 % 0.0 in
14:45 18.2 °F 13.7 °F 1017.5 in SSW 6.4 mph 19.3 mph 75 % 0.0 in
15:00 18.4 °F 13.9 °F 1017.5 in SSW 1.6 mph 11.3 mph 75 % 0.0 in
15:15 18.5 °F 13.8 °F 1017.5 in SSW 4.8 mph 14.5 mph 74 % 0.0 in
15:30 18.4 °F 13.3 °F 1017.5 in SSW 8.0 mph 20.9 mph 72 % 0.0 in
15:45 18.6 °F 13.2 °F 1017.5 in SSW 8.0 mph 19.3 mph 71 % 0.0 in
16:00 18.9 °F 13.6 °F 1017.5 in SSW 8.0 mph 19.3 mph 71 % 0.0 in
16:30 19.1 °F 13.9 °F 1017.5 in SSW 8.0 mph 19.3 mph 72 % 0.0 in
16:45 18.6 °F 13.8 °F 1017.5 in SSW 6.4 mph 19.3 mph 74 % 0.0 in
17:00 18.4 °F 13.9 °F 1017.5 in SSW 6.4 mph 19.3 mph 75 % 0.0 in
17:15 18.5 °F 13.8 °F 1017.8 in SSW 6.4 mph 19.3 mph 74 % 0.0 in
17:30 19.0 °F 14.0 °F 1017.8 in SW 6.4 mph 14.5 mph 73 % 0.0 in
17:45 19.3 °F 14.1 °F 1017.8 in SSW 6.4 mph 19.3 mph 72 % 0.0 in
18:00 19.0 °F 14.3 °F 1017.8 in SSW 6.4 mph 22.5 mph 74 % 0.0 in
18:15 18.6 °F 13.4 °F 1017.8 in SSW 8.0 mph 24.1 mph 72 % 0.0 in
18:30 18.0 °F 13.5 °F 1017.8 in SSW 6.4 mph 19.3 mph 75 % 0.0 in
18:45 17.9 °F 13.4 °F 1017.8 in SSW 6.4 mph 12.9 mph 75 % 0.0 in
19:00 18.2 °F 13.3 °F 1017.8 in SSW 8.0 mph 20.9 mph 73 % 0.0 in
19:15 18.1 °F 12.9 °F 1017.8 in SSW 8.0 mph 27.4 mph 72 % 0.0 in
19:30 17.5 °F 12.8 °F 1017.8 in SSW 11.3 mph 29.0 mph 74 % 0.0 in
19:45 17.3 °F 13.0 °F 1017.8 in SSW 8.0 mph 17.7 mph 76 % 0.0 in
20:00 17.2 °F 13.1 °F 1017.8 in SSW 8.0 mph 20.9 mph 77 % 0.0 in
20:15 17.0 °F 13.1 °F 1017.8 in SSW 6.4 mph 19.3 mph 78 % 0.0 in
20:30 16.9 °F 13.0 °F 1018.2 in SSW 6.4 mph 20.9 mph 78 % 0.0 in
20:45 16.8 °F 13.1 °F 1018.2 in SSW 3.2 mph 12.9 mph 79 % 0.0 in
21:00 16.6 °F 13.3 °F 1018.2 in SSW 3.2 mph 11.3 mph 81 % 0.0 in
21:15 16.3 °F 13.3 °F 1018.5 in SSW 3.2 mph 11.3 mph 82 % 0.0 in
21:30 16.1 °F 13.2 °F 1018.5 in SSW 1.6 mph 8.0 mph 83 % 0.0 in
21:45 15.7 °F 13.2 °F 1018.5 in SSW 1.6 mph 8.0 mph 85 % 0.0 in
22:00 15.4 °F 13.1 °F 1018.8 in Calm   8.0 mph 86 % 0.0 in
22:15 15.1 °F 12.9 °F 1018.8 in Calm   4.8 mph 87 % 0.0 in
22:30 14.8 °F 12.9 °F 1018.8 in Calm   1.6 mph 88 % 0.0 in
22:45 14.3 °F 12.5 °F 1019.2 in Calm   1.6 mph 89 % 0.0 in
23:00 14.0 °F 12.6 °F 1019.2 in Calm   3.2 mph 91 % 0.0 in
23:15 13.8 °F 12.4 °F 1019.2 in Calm   4.8 mph 91 % 0.0 in
23:30 13.6 °F 12.3 °F 1019.2 in Calm     92 % 0.0 in
23:45 13.4 °F 12.1 °F 1019.2 in Calm   4.8 mph 92 % 0.0 in
Esan sääasema
Terveisin Weather Underground - 2.75 mb

Alkuperäinen skripti  Jim McMurry - jmcmurry@mwt.net Sovitettu myös templatelle  Wim van der Kuil - Leuven-Template.eu

Laitteet joita käytämme:

Sääasema
Davis VP2

Sääasemaohjelma
Cumulus

Sääaseman tietokone
Asus EeePC

Palveluntarjoaja
Suncomet

Davis VP2

Cumulus

Asus EeePC

Suncomet